sensor_id;sensor_type;location;lat;lon;timestamp;temperature;humidity
14771;DHT22;7477;45.222;5.688;2022-08-24T00:00:30;22.10;91.90
14771;DHT22;7477;45.222;5.688;2022-08-24T00:03:50;22.00;92.20
14771;DHT22;7477;45.222;5.688;2022-08-24T00:07:09;21.90;92.20
14771;DHT22;7477;45.222;5.688;2022-08-24T00:10:28;21.90;92.30
14771;DHT22;7477;45.222;5.688;2022-08-24T00:13:47;22.00;92.50
14771;DHT22;7477;45.222;5.688;2022-08-24T00:17:07;21.90;92.50
14771;DHT22;7477;45.222;5.688;2022-08-24T00:20:27;21.90;92.70
14771;DHT22;7477;45.222;5.688;2022-08-24T00:23:47;21.80;92.90
14771;DHT22;7477;45.222;5.688;2022-08-24T00:27:07;21.80;93.30
14771;DHT22;7477;45.222;5.688;2022-08-24T00:30:26;21.90;93.50
14771;DHT22;7477;45.222;5.688;2022-08-24T00:33:46;21.80;93.60
14771;DHT22;7477;45.222;5.688;2022-08-24T00:37:06;21.90;93.90
14771;DHT22;7477;45.222;5.688;2022-08-24T00:40:32;21.70;94.40
14771;DHT22;7477;45.222;5.688;2022-08-24T00:43:53;21.60;94.90
14771;DHT22;7477;45.222;5.688;2022-08-24T00:47:29;21.50;95.10
14771;DHT22;7477;45.222;5.688;2022-08-24T00:50:58;21.50;95.10
14771;DHT22;7477;45.222;5.688;2022-08-24T00:54:18;21.50;95.50
14771;DHT22;7477;45.222;5.688;2022-08-24T00:57:40;21.40;95.80
14771;DHT22;7477;45.222;5.688;2022-08-24T01:01:02;21.30;95.90
14771;DHT22;7477;45.222;5.688;2022-08-24T01:04:38;21.30;95.90
14771;DHT22;7477;45.222;5.688;2022-08-24T01:08:00;21.20;96.30
14771;DHT22;7477;45.222;5.688;2022-08-24T01:11:22;21.30;96.40
14771;DHT22;7477;45.222;5.688;2022-08-24T01:14:42;21.20;96.60
14771;DHT22;7477;45.222;5.688;2022-08-24T01:18:03;21.20;96.90
14771;DHT22;7477;45.222;5.688;2022-08-24T01:25:17;21.10;97.20
14771;DHT22;7477;45.222;5.688;2022-08-24T01:28:38;21.10;97.20
14771;DHT22;7477;45.222;5.688;2022-08-24T01:31:58;21.00;97.20
14771;DHT22;7477;45.222;5.688;2022-08-24T01:35:18;20.90;97.10
14771;DHT22;7477;45.222;5.688;2022-08-24T01:38:37;21.00;96.90
14771;DHT22;7477;45.222;5.688;2022-08-24T01:41:58;21.00;96.80
14771;DHT22;7477;45.222;5.688;2022-08-24T01:45:19;21.10;96.70
14771;DHT22;7477;45.222;5.688;2022-08-24T01:48:38;21.10;97.10
14771;DHT22;7477;45.222;5.688;2022-08-24T01:51:57;21.00;96.80
14771;DHT22;7477;45.222;5.688;2022-08-24T01:55:18;21.00;96.80
14771;DHT22;7477;45.222;5.688;2022-08-24T01:58:44;21.00;97.00
14771;DHT22;7477;45.222;5.688;2022-08-24T02:02:10;21.00;97.00
14771;DHT22;7477;45.222;5.688;2022-08-24T02:05:30;21.00;97.10
14771;DHT22;7477;45.222;5.688;2022-08-24T02:08:49;21.00;97.10
14771;DHT22;7477;45.222;5.688;2022-08-24T02:12:08;21.00;97.20
14771;DHT22;7477;45.222;5.688;2022-08-24T02:15:34;20.90;97.10
14771;DHT22;7477;45.222;5.688;2022-08-24T02:18:57;20.90;97.00
14771;DHT22;7477;45.222;5.688;2022-08-24T02:22:17;20.90;97.10
14771;DHT22;7477;45.222;5.688;2022-08-24T02:25:36;20.80;97.10
14771;DHT22;7477;45.222;5.688;2022-08-24T02:28:55;20.80;97.10
14771;DHT22;7477;45.222;5.688;2022-08-24T02:32:15;20.80;97.10
14771;DHT22;7477;45.222;5.688;2022-08-24T02:35:34;20.80;97.00
14771;DHT22;7477;45.222;5.688;2022-08-24T02:38:54;20.80;97.00
14771;DHT22;7477;45.222;5.688;2022-08-24T02:42:14;20.70;96.90
14771;DHT22;7477;45.222;5.688;2022-08-24T02:45:38;20.70;96.80
14771;DHT22;7477;45.222;5.688;2022-08-24T02:48:58;20.70;96.80
14771;DHT22;7477;45.222;5.688;2022-08-24T02:52:17;20.70;96.90
14771;DHT22;7477;45.222;5.688;2022-08-24T02:55:37;20.70;96.70
14771;DHT22;7477;45.222;5.688;2022-08-24T02:58:59;20.70;96.70
14771;DHT22;7477;45.222;5.688;2022-08-24T03:02:19;20.70;96.80
14771;DHT22;7477;45.222;5.688;2022-08-24T03:05:38;20.70;96.90
14771;DHT22;7477;45.222;5.688;2022-08-24T03:08:57;20.80;96.80
14771;DHT22;7477;45.222;5.688;2022-08-24T03:12:17;20.60;96.90
14771;DHT22;7477;45.222;5.688;2022-08-24T03:15:36;20.70;97.10
14771;DHT22;7477;45.222;5.688;2022-08-24T03:18:55;20.60;97.30
14771;DHT22;7477;45.222;5.688;2022-08-24T03:22:15;20.50;97.10
14771;DHT22;7477;45.222;5.688;2022-08-24T03:25:34;20.50;97.00
14771;DHT22;7477;45.222;5.688;2022-08-24T03:28:53;20.50;96.90
14771;DHT22;7477;45.222;5.688;2022-08-24T03:32:13;20.50;96.50
14771;DHT22;7477;45.222;5.688;2022-08-24T03:35:32;20.50;96.60
14771;DHT22;7477;45.222;5.688;2022-08-24T03:38:52;20.50;96.30
14771;DHT22;7477;45.222;5.688;2022-08-24T03:42:11;20.40;96.30
14771;DHT22;7477;45.222;5.688;2022-08-24T03:45:30;20.40;96.10
14771;DHT22;7477;45.222;5.688;2022-08-24T03:48:49;20.40;96.40
14771;DHT22;7477;45.222;5.688;2022-08-24T03:52:08;20.40;96.80
14771;DHT22;7477;45.222;5.688;2022-08-24T03:55:28;20.40;96.90
14771;DHT22;7477;45.222;5.688;2022-08-24T03:58:47;20.40;96.80
14771;DHT22;7477;45.222;5.688;2022-08-24T04:02:07;20.50;96.90
14771;DHT22;7477;45.222;5.688;2022-08-24T04:05:27;20.40;96.90
14771;DHT22;7477;45.222;5.688;2022-08-24T04:08:46;20.40;97.10
14771;DHT22;7477;45.222;5.688;2022-08-24T04:12:06;20.40;97.10
14771;DHT22;7477;45.222;5.688;2022-08-24T04:15:27;20.40;97.10
14771;DHT22;7477;45.222;5.688;2022-08-24T04:18:46;20.30;97.20
14771;DHT22;7477;45.222;5.688;2022-08-24T04:22:06;20.30;96.50
14771;DHT22;7477;45.222;5.688;2022-08-24T04:25:25;20.20;96.20
14771;DHT22;7477;45.222;5.688;2022-08-24T04:28:45;20.10;96.30
14771;DHT22;7477;45.222;5.688;2022-08-24T04:32:05;20.10;96.50
14771;DHT22;7477;45.222;5.688;2022-08-24T04:35:25;20.00;96.40
14771;DHT22;7477;45.222;5.688;2022-08-24T04:38:45;20.00;96.40
14771;DHT22;7477;45.222;5.688;2022-08-24T04:42:05;19.90;96.70
14771;DHT22;7477;45.222;5.688;2022-08-24T04:45:25;19.90;96.70
14771;DHT22;7477;45.222;5.688;2022-08-24T04:48:47;19.90;96.60
14771;DHT22;7477;45.222;5.688;2022-08-24T04:52:06;19.90;96.60
14771;DHT22;7477;45.222;5.688;2022-08-24T04:55:30;19.90;96.70
14771;DHT22;7477;45.222;5.688;2022-08-24T04:58:50;19.90;96.90
14771;DHT22;7477;45.222;5.688;2022-08-24T05:02:10;19.90;97.10
14771;DHT22;7477;45.222;5.688;2022-08-24T05:05:29;19.90;97.50
14771;DHT22;7477;45.222;5.688;2022-08-24T05:08:48;19.90;97.20
14771;DHT22;7477;45.222;5.688;2022-08-24T05:12:08;19.90;97.20
14771;DHT22;7477;45.222;5.688;2022-08-24T05:15:27;19.80;97.20
14771;DHT22;7477;45.222;5.688;2022-08-24T05:18:46;19.80;97.00
14771;DHT22;7477;45.222;5.688;2022-08-24T05:22:06;19.80;97.00
14771;DHT22;7477;45.222;5.688;2022-08-24T05:25:26;19.80;97.10
14771;DHT22;7477;45.222;5.688;2022-08-24T05:28:46;19.90;97.00
14771;DHT22;7477;45.222;5.688;2022-08-24T05:32:05;19.80;96.90
14771;DHT22;7477;45.222;5.688;2022-08-24T05:35:25;19.80;96.90
14771;DHT22;7477;45.222;5.688;2022-08-24T05:38:45;19.80;97.00
14771;DHT22;7477;45.222;5.688;2022-08-24T05:42:05;19.80;97.20
14771;DHT22;7477;45.222;5.688;2022-08-24T05:45:25;19.90;97.40
14771;DHT22;7477;45.222;5.688;2022-08-24T05:48:44;19.90;97.70
14771;DHT22;7477;45.222;5.688;2022-08-24T05:52:04;19.80;97.80
14771;DHT22;7477;45.222;5.688;2022-08-24T05:55:23;19.80;97.90
14771;DHT22;7477;45.222;5.688;2022-08-24T05:58:44;19.80;97.90
14771;DHT22;7477;45.222;5.688;2022-08-24T06:02:03;19.80;97.80
14771;DHT22;7477;45.222;5.688;2022-08-24T06:05:22;19.80;97.80
14771;DHT22;7477;45.222;5.688;2022-08-24T06:08:46;19.80;97.90
14771;DHT22;7477;45.222;5.688;2022-08-24T06:12:07;19.80;98.00
14771;DHT22;7477;45.222;5.688;2022-08-24T06:15:27;19.70;97.90
14771;DHT22;7477;45.222;5.688;2022-08-24T06:18:47;19.70;98.20
14771;DHT22;7477;45.222;5.688;2022-08-24T06:22:07;19.70;98.30
14771;DHT22;7477;45.222;5.688;2022-08-24T06:25:27;19.70;98.30
14771;DHT22;7477;45.222;5.688;2022-08-24T06:29:06;19.80;98.30
14771;DHT22;7477;45.222;5.688;2022-08-24T06:32:27;19.60;98.30
14771;DHT22;7477;45.222;5.688;2022-08-24T06:35:46;19.60;98.60
14771;DHT22;7477;45.222;5.688;2022-08-24T06:39:06;19.50;98.60
14771;DHT22;7477;45.222;5.688;2022-08-24T06:42:26;19.60;98.50
14771;DHT22;7477;45.222;5.688;2022-08-24T06:45:50;19.90;98.10
14771;DHT22;7477;45.222;5.688;2022-08-24T06:49:09;21.80;95.50
14771;DHT22;7477;45.222;5.688;2022-08-24T06:52:29;22.10;94.20
14771;DHT22;7477;45.222;5.688;2022-08-24T06:55:57;20.90;95.70
14771;DHT22;7477;45.222;5.688;2022-08-24T06:59:17;20.30;96.70
14771;DHT22;7477;45.222;5.688;2022-08-24T07:02:36;20.10;97.10
14771;DHT22;7477;45.222;5.688;2022-08-24T07:05:56;20.40;96.70
14771;DHT22;7477;45.222;5.688;2022-08-24T07:09:16;20.10;97.30
14771;DHT22;7477;45.222;5.688;2022-08-24T07:12:36;20.00;97.40
14771;DHT22;7477;45.222;5.688;2022-08-24T07:15:55;20.00;97.70
14771;DHT22;7477;45.222;5.688;2022-08-24T07:19:15;20.00;97.50
14771;DHT22;7477;45.222;5.688;2022-08-24T07:22:35;20.00;97.70
14771;DHT22;7477;45.222;5.688;2022-08-24T07:25:54;20.40;97.10
14771;DHT22;7477;45.222;5.688;2022-08-24T07:29:13;21.40;95.70
14771;DHT22;7477;45.222;5.688;2022-08-24T07:32:33;22.00;94.80
14771;DHT22;7477;45.222;5.688;2022-08-24T07:35:52;22.30;94.00
14771;DHT22;7477;45.222;5.688;2022-08-24T07:39:11;22.40;93.60
14771;DHT22;7477;45.222;5.688;2022-08-24T07:42:31;22.20;93.60
14771;DHT22;7477;45.222;5.688;2022-08-24T07:45:51;22.30;93.50
14771;DHT22;7477;45.222;5.688;2022-08-24T07:49:10;22.30;93.30
14771;DHT22;7477;45.222;5.688;2022-08-24T07:52:30;21.70;93.90
14771;DHT22;7477;45.222;5.688;2022-08-24T07:55:56;21.60;94.00
14771;DHT22;7477;45.222;5.688;2022-08-24T07:59:16;21.20;94.70
14771;DHT22;7477;45.222;5.688;2022-08-24T08:02:37;21.10;95.30
14771;DHT22;7477;45.222;5.688;2022-08-24T08:05:57;21.20;95.20
14771;DHT22;7477;45.222;5.688;2022-08-24T08:09:17;21.40;95.10
14771;DHT22;7477;45.222;5.688;2022-08-24T08:12:37;21.30;95.30
14771;DHT22;7477;45.222;5.688;2022-08-24T08:15:57;21.30;95.20
14771;DHT22;7477;45.222;5.688;2022-08-24T08:19:17;21.30;95.20
14771;DHT22;7477;45.222;5.688;2022-08-24T08:22:36;21.30;95.20
14771;DHT22;7477;45.222;5.688;2022-08-24T08:26:19;21.50;95.20
14771;DHT22;7477;45.222;5.688;2022-08-24T08:29:39;21.50;95.10
14771;DHT22;7477;45.222;5.688;2022-08-24T08:32:59;21.50;94.90
14771;DHT22;7477;45.222;5.688;2022-08-24T08:36:18;21.60;95.10
14771;DHT22;7477;45.222;5.688;2022-08-24T08:39:39;21.60;95.00
14771;DHT22;7477;45.222;5.688;2022-08-24T08:43:04;21.60;95.10
14771;DHT22;7477;45.222;5.688;2022-08-24T08:50:12;21.70;94.90
14771;DHT22;7477;45.222;5.688;2022-08-24T09:12:11;21.80;95.00
14771;DHT22;7477;45.222;5.688;2022-08-24T09:15:54;21.90;94.80
14771;DHT22;7477;45.222;5.688;2022-08-24T09:34:56;21.90;94.70
14771;DHT22;7477;45.222;5.688;2022-08-24T09:38:45;21.90;94.50
14771;DHT22;7477;45.222;5.688;2022-08-24T09:46:20;22.00;94.40
14771;DHT22;7477;45.222;5.688;2022-08-24T09:50:11;22.20;94.20
14771;DHT22;7477;45.222;5.688;2022-08-24T09:54:07;22.20;94.20
14771;DHT22;7477;45.222;5.688;2022-08-24T10:08:42;22.20;94.30
14771;DHT22;7477;45.222;5.688;2022-08-24T10:12:27;22.10;94.50
14771;DHT22;7477;45.222;5.688;2022-08-24T10:19:39;22.30;94.30
14771;DHT22;7477;45.222;5.688;2022-08-24T10:42:09;22.60;93.80
14771;DHT22;7477;45.222;5.688;2022-08-24T10:46:53;22.60;94.20
14771;DHT22;7477;45.222;5.688;2022-08-24T10:53:19;22.80;93.40
14771;DHT22;7477;45.222;5.688;2022-08-24T10:56:40;23.10;92.90
14771;DHT22;7477;45.222;5.688;2022-08-24T11:00:12;23.20;92.40
14771;DHT22;7477;45.222;5.688;2022-08-24T11:04:08;23.40;92.40
14771;DHT22;7477;45.222;5.688;2022-08-24T11:07:27;23.60;91.40
14771;DHT22;7477;45.222;5.688;2022-08-24T11:11:11;23.30;92.20
14771;DHT22;7477;45.222;5.688;2022-08-24T11:14:30;22.90;93.30
14771;DHT22;7477;45.222;5.688;2022-08-24T11:25:12;23.50;92.20
14771;DHT22;7477;45.222;5.688;2022-08-24T11:28:43;23.10;93.10
14771;DHT22;7477;45.222;5.688;2022-08-24T11:32:03;23.40;93.20
14771;DHT22;7477;45.222;5.688;2022-08-24T11:39:13;23.10;93.30
14771;DHT22;7477;45.222;5.688;2022-08-24T11:50:06;24.60;91.10
14771;DHT22;7477;45.222;5.688;2022-08-24T12:08:48;25.00;91.00
14771;DHT22;7477;45.222;5.688;2022-08-24T12:19:32;26.00;87.00
14771;DHT22;7477;45.222;5.688;2022-08-24T12:22:56;26.20;84.20
14771;DHT22;7477;45.222;5.688;2022-08-24T12:26:24;26.40;84.10
14771;DHT22;7477;45.222;5.688;2022-08-24T12:29:58;26.40;85.40
14771;DHT22;7477;45.222;5.688;2022-08-24T12:33:26;26.30;85.30
14771;DHT22;7477;45.222;5.688;2022-08-24T12:36:52;26.50;85.80
14771;DHT22;7477;45.222;5.688;2022-08-24T12:43:52;26.80;85.50
14771;DHT22;7477;45.222;5.688;2022-08-24T12:58:34;27.10;75.80
14771;DHT22;7477;45.222;5.688;2022-08-24T13:02:06;27.40;77.10
14771;DHT22;7477;45.222;5.688;2022-08-24T13:05:45;27.70;74.20
14771;DHT22;7477;45.222;5.688;2022-08-24T13:13:39;28.10;73.70
14771;DHT22;7477;45.222;5.688;2022-08-24T13:28:03;28.40;73.30
14771;DHT22;7477;45.222;5.688;2022-08-24T13:31:32;28.40;74.00
14771;DHT22;7477;45.222;5.688;2022-08-24T13:34:56;28.30;73.70
14771;DHT22;7477;45.222;5.688;2022-08-24T13:45:55;28.00;72.50
14771;DHT22;7477;45.222;5.688;2022-08-24T13:49:28;28.10;71.60
14771;DHT22;7477;45.222;5.688;2022-08-24T14:00:31;28.00;73.80
14771;DHT22;7477;45.222;5.688;2022-08-24T14:11:18;28.70;72.50
14771;DHT22;7477;45.222;5.688;2022-08-24T14:18:32;28.70;73.00
14771;DHT22;7477;45.222;5.688;2022-08-24T14:25:32;28.20;74.80
14771;DHT22;7477;45.222;5.688;2022-08-24T14:28:52;28.30;74.50
14771;DHT22;7477;45.222;5.688;2022-08-24T14:35:43;28.50;74.60
14771;DHT22;7477;45.222;5.688;2022-08-24T14:43:05;28.30;74.70
14771;DHT22;7477;45.222;5.688;2022-08-24T14:46:58;29.10;72.70
14771;DHT22;7477;45.222;5.688;2022-08-24T14:50:23;29.30;72.20
14771;DHT22;7477;45.222;5.688;2022-08-24T15:07:39;30.10;65.00
14771;DHT22;7477;45.222;5.688;2022-08-24T15:11:06;30.40;65.00
14771;DHT22;7477;45.222;5.688;2022-08-24T15:14:46;30.50;65.00
14771;DHT22;7477;45.222;5.688;2022-08-24T15:22:12;30.20;65.50
14771;DHT22;7477;45.222;5.688;2022-08-24T15:29:27;31.10;62.90
14771;DHT22;7477;45.222;5.688;2022-08-24T15:32:59;31.00;63.30
14771;DHT22;7477;45.222;5.688;2022-08-24T15:36:19;31.20;60.90
14771;DHT22;7477;45.222;5.688;2022-08-24T15:39:39;31.10;62.30
14771;DHT22;7477;45.222;5.688;2022-08-24T15:43:00;31.10;61.90
14771;DHT22;7477;45.222;5.688;2022-08-24T15:46:28;31.30;60.60
14771;DHT22;7477;45.222;5.688;2022-08-24T15:49:57;31.50;60.50
14771;DHT22;7477;45.222;5.688;2022-08-24T15:53:29;31.40;61.60
14771;DHT22;7477;45.222;5.688;2022-08-24T15:56:55;31.50;60.40
14771;DHT22;7477;45.222;5.688;2022-08-24T16:00:18;31.20;58.00
14771;DHT22;7477;45.222;5.688;2022-08-24T16:04:03;31.60;59.20
14771;DHT22;7477;45.222;5.688;2022-08-24T16:07:24;31.80;58.30
14771;DHT22;7477;45.222;5.688;2022-08-24T16:10:51;31.80;58.30
14771;DHT22;7477;45.222;5.688;2022-08-24T16:14:28;31.90;59.80
14771;DHT22;7477;45.222;5.688;2022-08-24T16:17:52;31.40;61.10
14771;DHT22;7477;45.222;5.688;2022-08-24T16:21:23;31.60;60.20
14771;DHT22;7477;45.222;5.688;2022-08-24T16:25:25;31.40;62.10
14771;DHT22;7477;45.222;5.688;2022-08-24T16:28:45;31.80;60.40
14771;DHT22;7477;45.222;5.688;2022-08-24T16:35:33;31.60;60.60
14771;DHT22;7477;45.222;5.688;2022-08-24T16:38:52;31.80;60.10
14771;DHT22;7477;45.222;5.688;2022-08-24T16:42:23;31.60;59.60
14771;DHT22;7477;45.222;5.688;2022-08-24T16:45:43;31.30;59.60
14771;DHT22;7477;45.222;5.688;2022-08-24T16:49:03;31.00;61.10
14771;DHT22;7477;45.222;5.688;2022-08-24T16:52:22;30.80;60.80
14771;DHT22;7477;45.222;5.688;2022-08-24T16:55:42;30.50;60.90
14771;DHT22;7477;45.222;5.688;2022-08-24T16:59:01;30.20;62.10
14771;DHT22;7477;45.222;5.688;2022-08-24T17:02:21;30.10;63.00
14771;DHT22;7477;45.222;5.688;2022-08-24T17:05:41;29.90;63.10
14771;DHT22;7477;45.222;5.688;2022-08-24T17:09:01;29.90;63.50
14771;DHT22;7477;45.222;5.688;2022-08-24T17:12:22;29.60;65.00
14771;DHT22;7477;45.222;5.688;2022-08-24T17:15:42;29.50;64.40
14771;DHT22;7477;45.222;5.688;2022-08-24T17:19:10;29.40;64.50
14771;DHT22;7477;45.222;5.688;2022-08-24T17:22:30;29.40;64.50
14771;DHT22;7477;45.222;5.688;2022-08-24T17:25:50;29.30;65.20
14771;DHT22;7477;45.222;5.688;2022-08-24T17:29:10;29.20;63.90
14771;DHT22;7477;45.222;5.688;2022-08-24T17:32:29;29.10;64.10
14771;DHT22;7477;45.222;5.688;2022-08-24T17:35:50;29.00;64.50
14771;DHT22;7477;45.222;5.688;2022-08-24T17:39:12;28.90;65.60
14771;DHT22;7477;45.222;5.688;2022-08-24T17:42:31;28.70;66.90
14771;DHT22;7477;45.222;5.688;2022-08-24T17:45:51;28.70;65.90
14771;DHT22;7477;45.222;5.688;2022-08-24T17:49:11;28.70;65.50
14771;DHT22;7477;45.222;5.688;2022-08-24T17:52:31;28.60;66.70
14771;DHT22;7477;45.222;5.688;2022-08-24T17:55:50;28.50;65.60
14771;DHT22;7477;45.222;5.688;2022-08-24T17:59:11;28.40;65.50
14771;DHT22;7477;45.222;5.688;2022-08-24T18:02:44;28.50;68.10
14771;DHT22;7477;45.222;5.688;2022-08-24T18:06:03;28.50;70.00
14771;DHT22;7477;45.222;5.688;2022-08-24T18:12:53;28.20;72.10
14771;DHT22;7477;45.222;5.688;2022-08-24T18:16:16;28.10;72.80
14771;DHT22;7477;45.222;5.688;2022-08-24T18:19:38;27.90;73.20
14771;DHT22;7477;45.222;5.688;2022-08-24T18:22:58;27.80;72.80
14771;DHT22;7477;45.222;5.688;2022-08-24T18:26:24;27.20;73.40
14771;DHT22;7477;45.222;5.688;2022-08-24T18:29:46;27.60;73.80
14771;DHT22;7477;45.222;5.688;2022-08-24T18:33:06;27.60;73.90
14771;DHT22;7477;45.222;5.688;2022-08-24T18:36:26;27.50;74.10
14771;DHT22;7477;45.222;5.688;2022-08-24T18:39:46;27.40;74.20
14771;DHT22;7477;45.222;5.688;2022-08-24T18:43:05;27.40;74.30
14771;DHT22;7477;45.222;5.688;2022-08-24T18:46:27;27.30;74.20
14771;DHT22;7477;45.222;5.688;2022-08-24T18:49:48;27.30;74.50
14771;DHT22;7477;45.222;5.688;2022-08-24T18:53:07;27.20;74.60
14771;DHT22;7477;45.222;5.688;2022-08-24T18:56:27;27.10;74.60
14771;DHT22;7477;45.222;5.688;2022-08-24T18:59:46;27.10;74.60
14771;DHT22;7477;45.222;5.688;2022-08-24T19:03:09;27.10;74.80
14771;DHT22;7477;45.222;5.688;2022-08-24T19:06:32;27.00;74.70
14771;DHT22;7477;45.222;5.688;2022-08-24T19:09:52;26.80;74.60
14771;DHT22;7477;45.222;5.688;2022-08-24T19:13:13;26.80;74.80
14771;DHT22;7477;45.222;5.688;2022-08-24T19:16:35;26.80;74.60
14771;DHT22;7477;45.222;5.688;2022-08-24T19:19:54;26.70;74.70
14771;DHT22;7477;45.222;5.688;2022-08-24T19:23:29;26.50;74.40
14771;DHT22;7477;45.222;5.688;2022-08-24T19:26:50;26.50;74.50
14771;DHT22;7477;45.222;5.688;2022-08-24T19:30:10;26.40;74.60
14771;DHT22;7477;45.222;5.688;2022-08-24T19:33:50;26.40;74.10
14771;DHT22;7477;45.222;5.688;2022-08-24T19:37:09;26.50;73.50
14771;DHT22;7477;45.222;5.688;2022-08-24T19:40:29;26.60;73.30
14771;DHT22;7477;45.222;5.688;2022-08-24T19:43:54;26.60;73.70
14771;DHT22;7477;45.222;5.688;2022-08-24T19:47:33;26.50;74.30
14771;DHT22;7477;45.222;5.688;2022-08-24T19:50:53;26.30;74.90
14771;DHT22;7477;45.222;5.688;2022-08-24T19:54:13;26.20;75.00
14771;DHT22;7477;45.222;5.688;2022-08-24T20:01:03;26.20;74.70
14771;DHT22;7477;45.222;5.688;2022-08-24T20:04:22;26.10;74.80
14771;DHT22;7477;45.222;5.688;2022-08-24T20:07:42;26.20;75.00
14771;DHT22;7477;45.222;5.688;2022-08-24T20:11:02;26.20;75.30
14771;DHT22;7477;45.222;5.688;2022-08-24T20:14:22;26.40;75.50
14771;DHT22;7477;45.222;5.688;2022-08-24T20:17:42;26.40;75.90
14771;DHT22;7477;45.222;5.688;2022-08-24T20:21:02;26.30;75.40
14771;DHT22;7477;45.222;5.688;2022-08-24T20:24:22;26.20;75.60
14771;DHT22;7477;45.222;5.688;2022-08-24T20:27:44;26.30;75.80
14771;DHT22;7477;45.222;5.688;2022-08-24T20:31:05;26.40;76.20
14771;DHT22;7477;45.222;5.688;2022-08-24T20:34:24;26.30;76.80
14771;DHT22;7477;45.222;5.688;2022-08-24T20:37:43;26.30;77.20
14771;DHT22;7477;45.222;5.688;2022-08-24T20:41:03;26.10;77.70
14771;DHT22;7477;45.222;5.688;2022-08-24T20:44:23;26.00;78.40
14771;DHT22;7477;45.222;5.688;2022-08-24T20:47:49;25.80;79.90
14771;DHT22;7477;45.222;5.688;2022-08-24T20:51:09;25.70;82.10
14771;DHT22;7477;45.222;5.688;2022-08-24T20:54:29;25.30;83.70
14771;DHT22;7477;45.222;5.688;2022-08-24T20:57:50;25.20;85.00
14771;DHT22;7477;45.222;5.688;2022-08-24T21:01:10;25.20;85.40
14771;DHT22;7477;45.222;5.688;2022-08-24T21:04:30;25.20;86.20
14771;DHT22;7477;45.222;5.688;2022-08-24T21:07:49;25.00;86.30
14771;DHT22;7477;45.222;5.688;2022-08-24T21:11:09;25.00;87.10
14771;DHT22;7477;45.222;5.688;2022-08-24T21:14:28;25.00;87.20
14771;DHT22;7477;45.222;5.688;2022-08-24T21:17:48;24.80;88.30
14771;DHT22;7477;45.222;5.688;2022-08-24T21:21:08;24.80;87.80
14771;DHT22;7477;45.222;5.688;2022-08-24T21:24:28;24.70;88.70
14771;DHT22;7477;45.222;5.688;2022-08-24T21:27:47;24.50;88.70
14771;DHT22;7477;45.222;5.688;2022-08-24T21:31:07;24.40;89.20
14771;DHT22;7477;45.222;5.688;2022-08-24T21:34:26;24.50;88.50
14771;DHT22;7477;45.222;5.688;2022-08-24T21:38:01;24.40;88.80
14771;DHT22;7477;45.222;5.688;2022-08-24T21:41:21;24.40;88.60
14771;DHT22;7477;45.222;5.688;2022-08-24T21:44:40;24.30;89.60
14771;DHT22;7477;45.222;5.688;2022-08-24T21:48:00;24.30;90.20
14771;DHT22;7477;45.222;5.688;2022-08-24T21:51:20;24.20;90.10
14771;DHT22;7477;45.222;5.688;2022-08-24T21:54:39;24.10;90.50
14771;DHT22;7477;45.222;5.688;2022-08-24T21:57:58;24.10;90.90
14771;DHT22;7477;45.222;5.688;2022-08-24T22:01:18;24.10;90.90
14771;DHT22;7477;45.222;5.688;2022-08-24T22:04:38;23.90;91.20
14771;DHT22;7477;45.222;5.688;2022-08-24T22:07:58;24.00;91.50
14771;DHT22;7477;45.222;5.688;2022-08-24T22:11:19;23.90;91.60
14771;DHT22;7477;45.222;5.688;2022-08-24T22:14:42;23.80;91.60
14771;DHT22;7477;45.222;5.688;2022-08-24T22:18:02;23.70;92.00
14771;DHT22;7477;45.222;5.688;2022-08-24T22:21:24;23.60;92.00
14771;DHT22;7477;45.222;5.688;2022-08-24T22:24:43;23.60;92.00
14771;DHT22;7477;45.222;5.688;2022-08-24T22:28:03;23.70;92.20
14771;DHT22;7477;45.222;5.688;2022-08-24T22:31:28;23.60;92.60
14771;DHT22;7477;45.222;5.688;2022-08-24T22:34:48;23.60;92.40
14771;DHT22;7477;45.222;5.688;2022-08-24T22:38:07;23.60;91.80
14771;DHT22;7477;45.222;5.688;2022-08-24T22:41:28;23.60;91.70
14771;DHT22;7477;45.222;5.688;2022-08-24T22:44:47;23.50;91.70
14771;DHT22;7477;45.222;5.688;2022-08-24T22:48:07;23.50;91.70
14771;DHT22;7477;45.222;5.688;2022-08-24T22:51:28;23.40;91.90
14771;DHT22;7477;45.222;5.688;2022-08-24T22:54:47;23.40;92.40
14771;DHT22;7477;45.222;5.688;2022-08-24T22:58:07;23.30;92.70
14771;DHT22;7477;45.222;5.688;2022-08-24T23:01:39;23.20;92.60
14771;DHT22;7477;45.222;5.688;2022-08-24T23:04:59;23.20;93.10
14771;DHT22;7477;45.222;5.688;2022-08-24T23:08:18;23.10;93.10
14771;DHT22;7477;45.222;5.688;2022-08-24T23:11:38;23.10;93.40
14771;DHT22;7477;45.222;5.688;2022-08-24T23:14:57;23.00;93.50
14771;DHT22;7477;45.222;5.688;2022-08-24T23:18:16;22.90;93.70
14771;DHT22;7477;45.222;5.688;2022-08-24T23:21:55;23.00;93.80
14771;DHT22;7477;45.222;5.688;2022-08-24T23:25:14;23.00;94.10
14771;DHT22;7477;45.222;5.688;2022-08-24T23:28:34;22.80;94.10
14771;DHT22;7477;45.222;5.688;2022-08-24T23:31:53;22.80;94.20
14771;DHT22;7477;45.222;5.688;2022-08-24T23:35:12;22.70;94.00
14771;DHT22;7477;45.222;5.688;2022-08-24T23:38:31;22.90;94.40
14771;DHT22;7477;45.222;5.688;2022-08-24T23:41:51;22.80;94.50
14771;DHT22;7477;45.222;5.688;2022-08-24T23:45:11;22.60;94.50
14771;DHT22;7477;45.222;5.688;2022-08-24T23:48:31;22.70;95.00
14771;DHT22;7477;45.222;5.688;2022-08-24T23:51:52;22.60;95.10
14771;DHT22;7477;45.222;5.688;2022-08-24T23:55:12;22.50;94.70
14771;DHT22;7477;45.222;5.688;2022-08-24T23:58:31;22.50;95.30
